createdAt,value
2022-08-12T00:01:15.373Z,102388.59
2022-08-12T00:04:02.216Z,102387.52
2022-08-12T00:06:50.475Z,102390.15
2022-08-12T00:09:37.388Z,102385.14
2022-08-12T00:12:24.567Z,102392.98
2022-08-12T00:15:11.299Z,102392.61
2022-08-12T00:17:58.678Z,102393.94
2022-08-12T00:20:45.473Z,102398.91
2022-08-12T00:23:32.497Z,102398.84
2022-08-12T00:26:22.446Z,102403.35
2022-08-12T00:29:14.542Z,102408.88
2022-08-12T00:32:01.747Z,102410.69
2022-08-12T00:34:51.609Z,102405.96
2022-08-12T00:37:40.682Z,102412.66
2022-08-12T00:40:30.017Z,102411.04
2022-08-12T00:42:58.919Z,102408.73
2022-08-12T00:45:47.574Z,102404.79
2022-08-12T00:48:17.300Z,102392.76
2022-08-12T00:50:48.119Z,102402.75
2022-08-12T00:53:19.028Z,102405.20
2022-08-12T00:55:48.045Z,102404.98
2022-08-12T00:58:21.105Z,102404.17
2022-08-12T01:00:50.350Z,102403.38
2022-08-12T01:03:22.390Z,102402.23
2022-08-12T01:06:11.389Z,102399.69
2022-08-12T01:08:59.243Z,102402.66
2022-08-12T01:11:32.281Z,102400.79
2022-08-12T01:14:02.669Z,102398.26
2022-08-12T01:16:31.330Z,102397.17
2022-08-12T01:19:00.462Z,102396.64
2022-08-12T01:21:28.677Z,102399.33
2022-08-12T01:24:34.233Z,102399.13
2022-08-12T01:27:07.682Z,102401.45
2022-08-12T01:29:41.917Z,102400.20
2022-08-12T01:32:14.614Z,102402.41
2022-08-12T01:35:07.868Z,102396.02
2022-08-12T01:37:46.836Z,102396.67
2022-08-12T01:40:33.786Z,102393.35
2022-08-12T01:43:11.038Z,102391.40
2022-08-12T01:45:57.440Z,102394.96
2022-08-12T01:48:35.092Z,102393.83
2022-08-12T01:52:07.483Z,102392.72
2022-08-12T01:54:06.271Z,102393.00
2022-08-12T01:57:06.819Z,102391.95
2022-08-12T02:00:04.562Z,102393.91
2022-08-12T02:02:56.850Z,102394.80
2022-08-12T02:06:08.359Z,102393.98
2022-08-12T02:09:13.663Z,102397.19
2022-08-12T02:12:19.628Z,102400.16
2022-08-12T02:15:01.863Z,102402.83
2022-08-12T02:17:55.149Z,102408.58
2022-08-12T02:20:51.661Z,102407.55
2022-08-12T02:23:28.236Z,102403.21
2022-08-12T02:26:01.498Z,102384.89
2022-08-12T02:28:30.800Z,102402.80
2022-08-12T02:31:05.066Z,102401.52
2022-08-12T02:33:33.563Z,102402.14
2022-08-12T02:36:03.878Z,102402.09
2022-08-12T02:38:32.782Z,102402.50
2022-08-12T02:41:04.270Z,102401.25
2022-08-12T02:43:50.523Z,102398.05
2022-08-12T02:46:23.841Z,102402.52
2022-08-12T02:49:17.144Z,102399.92
2022-08-12T02:51:45.501Z,102402.45
2022-08-12T02:54:13.938Z,102401.53
2022-08-12T02:56:50.419Z,102402.73
2022-08-12T02:59:23.322Z,102400.73
2022-08-12T03:01:56.824Z,102403.12
2022-08-12T03:04:31.396Z,102405.34
2022-08-12T03:07:10.204Z,102406.98
2022-08-12T03:10:04.610Z,102411.95
2022-08-12T03:12:48.974Z,102394.95
2022-08-12T03:15:22.991Z,102414.07
2022-08-12T03:18:24.709Z,102412.71
2022-08-12T03:20:47.098Z,102408.46
2022-08-12T03:23:29.125Z,102408.08
2022-08-12T03:26:02.107Z,102409.98
2022-08-12T03:28:52.081Z,102412.67
2022-08-12T03:31:24.814Z,102411.28
2022-08-12T03:34:00.663Z,102410.53
2022-08-12T03:36:31.823Z,102412.02
2022-08-12T03:39:35.270Z,102410.34
2022-08-12T03:42:13.798Z,102412.90
2022-08-12T03:45:11.467Z,102408.63
2022-08-12T03:48:18.981Z,102410.95
2022-08-12T03:51:06.814Z,102413.89
2022-08-12T03:53:54.113Z,102411.35
2022-08-12T03:56:40.810Z,102411.80
2022-08-12T03:59:27.473Z,102408.08
2022-08-12T04:01:58.933Z,102408.06
2022-08-12T04:04:34.906Z,102410.00
2022-08-12T04:07:10.282Z,102409.83
2022-08-12T04:09:40.938Z,102411.73
2022-08-12T04:12:29.277Z,102408.55
2022-08-12T04:15:02.279Z,102406.14
2022-08-12T04:17:31.475Z,102408.54
2022-08-12T04:20:01.270Z,102409.74
2022-08-12T04:22:37.940Z,102408.58
2022-08-12T04:25:06.461Z,102408.59
2022-08-12T04:27:35.273Z,102409.48
2022-08-12T04:30:16.934Z,102408.72
2022-08-12T04:32:54.224Z,102410.06
2022-08-12T04:35:22.496Z,102412.29
2022-08-12T04:37:57.947Z,102412.02
2022-08-12T04:40:31.757Z,102414.08
2022-08-12T04:43:01.660Z,102421.46
2022-08-12T04:45:34.925Z,102417.26
2022-08-12T04:48:03.437Z,102415.44
2022-08-12T04:50:34.989Z,102415.70
2022-08-12T04:53:08.293Z,102416.98
2022-08-12T04:55:39.114Z,102414.39
2022-08-12T04:58:10.276Z,102411.11
2022-08-12T05:00:39.189Z,102415.21
2022-08-12T05:03:08.214Z,102403.31
2022-08-12T05:05:38.020Z,102418.09
2022-08-12T05:08:16.382Z,102421.79
2022-08-12T05:10:48.614Z,102421.45
2022-08-12T05:13:20.256Z,102408.39
2022-08-12T05:16:04.938Z,102423.98
2022-08-12T05:18:39.447Z,102425.02
2022-08-12T05:21:09.424Z,102423.41
2022-08-12T05:23:39.378Z,102421.57
2022-08-12T05:26:07.846Z,102424.48
2022-08-12T05:28:37.076Z,102431.41
2022-08-12T05:31:05.598Z,102433.77
2022-08-12T05:33:40.241Z,102436.05
2022-08-12T05:36:12.751Z,102438.96
2022-08-12T05:38:56.868Z,102437.09
2022-08-12T05:41:27.858Z,102435.59
2022-08-12T05:44:01.802Z,102433.77
2022-08-12T05:46:32.277Z,102432.63
2022-08-12T05:49:01.239Z,102427.69
2022-08-12T05:51:40.911Z,102429.83
2022-08-12T05:54:11.713Z,102427.98
2022-08-12T05:56:43.441Z,102423.47
2022-08-12T05:59:12.725Z,102422.25
2022-08-12T06:02:11.684Z,102417.08
2022-08-12T06:04:31.659Z,102416.41
2022-08-12T06:07:01.956Z,102413.62
2022-08-12T06:09:31.100Z,102410.89
2022-08-12T06:12:05.738Z,102402.79
2022-08-12T06:14:39.390Z,102406.71
2022-08-12T06:17:11.348Z,102406.86
2022-08-12T06:20:27.501Z,102404.27
2022-08-12T06:22:28.000Z,102392.36
2022-08-12T06:24:56.277Z,102402.33
2022-08-12T06:27:24.557Z,102401.92
2022-08-12T06:30:08.820Z,102384.30
2022-08-12T06:33:18.437Z,102398.29
2022-08-12T06:35:51.811Z,102402.88
2022-08-12T06:38:26.316Z,102398.40
2022-08-12T06:41:15.545Z,102394.26
2022-08-12T06:44:04.424Z,102388.09
2022-08-12T06:46:36.957Z,102393.20
2022-08-12T06:49:07.085Z,102386.59
2022-08-12T06:51:35.493Z,102375.77
2022-08-12T06:54:03.874Z,102388.33
2022-08-12T06:57:02.598Z,102391.33
2022-08-12T06:59:21.717Z,102394.33
2022-08-12T07:01:51.728Z,102394.72
2022-08-12T07:04:38.722Z,102397.56
2022-08-12T07:07:10.996Z,102398.16
2022-08-12T07:10:00.109Z,102401.24
2022-08-12T07:12:28.819Z,102398.77
2022-08-12T07:14:58.952Z,102404.77
2022-08-12T07:17:37.955Z,102399.14
2022-08-12T07:20:29.622Z,102402.18
2022-08-12T07:22:59.550Z,102403.39
2022-08-12T07:25:40.304Z,102398.65
2022-08-12T07:28:24.846Z,102394.19
2022-08-12T07:30:55.834Z,102395.40
2022-08-12T07:34:13.798Z,102395.17
2022-08-12T07:36:41.958Z,102393.66
2022-08-12T07:39:10.787Z,102391.39
2022-08-12T07:41:39.954Z,102390.02
2022-08-12T07:44:09.386Z,102388.58
2022-08-12T07:46:43.606Z,102390.40
2022-08-12T07:49:14.614Z,102390.93
2022-08-12T07:51:44.344Z,102391.21
2022-08-12T07:54:14.791Z,102391.10
2022-08-12T07:56:43.512Z,102394.08
2022-08-12T07:59:12.003Z,102393.83
2022-08-12T08:01:40.413Z,102395.02
2022-08-12T08:04:27.413Z,102391.09
2022-08-12T08:06:55.802Z,102377.09
2022-08-12T08:09:24.650Z,102386.13
2022-08-12T08:12:18.602Z,102390.89
2022-08-12T08:14:52.141Z,102392.63
2022-08-12T08:17:20.515Z,102388.63
2022-08-12T08:20:41.230Z,102386.52
2022-08-12T08:23:12.758Z,102374.98
2022-08-12T08:25:41.529Z,102389.02
2022-08-12T08:28:12.381Z,102387.52
2022-08-12T08:30:44.024Z,102388.93
2022-08-12T08:33:23.492Z,102380.05
2022-08-12T08:36:02.030Z,102390.36
2022-08-12T08:38:33.068Z,102393.55
2022-08-12T08:42:16.292Z,102389.45
2022-08-12T08:44:12.256Z,102391.21
2022-08-12T08:46:41.466Z,102390.08
2022-08-12T08:49:09.702Z,102388.61
2022-08-12T08:51:39.192Z,102390.56
2022-08-12T08:54:08.961Z,102386.52
2022-08-12T08:56:50.212Z,102382.31
2022-08-12T08:59:20.066Z,102386.12
2022-08-12T09:01:48.820Z,102389.22
2022-08-12T09:05:08.963Z,102386.89
2022-08-12T09:07:17.039Z,102386.30
2022-08-12T09:10:02.680Z,102383.45
2022-08-12T09:12:54.855Z,102381.15
2022-08-12T09:15:35.843Z,102380.35
2022-08-12T09:18:08.717Z,102382.48
2022-08-12T09:20:40.066Z,102379.03
2022-08-12T09:23:58.389Z,102375.14
2022-08-12T09:28:52.844Z,102363.03
2022-08-12T09:32:08.177Z,102364.55
2022-08-12T09:34:27.448Z,102361.73
2022-08-12T09:37:19.477Z,102362.56
2022-08-12T09:40:01.444Z,102361.54
2022-08-12T09:43:04.825Z,102360.63
2022-08-12T09:46:11.083Z,102358.48
2022-08-12T09:48:26.834Z,102357.90
2022-08-12T09:51:11.015Z,102353.52
2022-08-12T09:54:06.002Z,102360.08
2022-08-12T09:57:02.044Z,102357.30
2022-08-12T10:00:12.531Z,102355.31
2022-08-12T10:02:42.973Z,102355.02
2022-08-12T10:05:13.220Z,102352.85
2022-08-12T10:07:42.281Z,102349.27
2022-08-12T10:10:23.938Z,102346.05
2022-08-12T10:13:35.860Z,102348.04
2022-08-12T10:16:24.383Z,102348.23
2022-08-12T10:19:06.156Z,102341.44
2022-08-12T10:21:46.114Z,102339.78
2022-08-12T10:24:20.092Z,102334.65
2022-08-12T10:27:08.203Z,102338.29
2022-08-12T10:30:02.970Z,102334.30
2022-08-12T10:32:45.396Z,102324.48
2022-08-12T10:35:21.041Z,102320.84
2022-08-12T10:38:34.847Z,102312.85
2022-08-12T10:41:00.577Z,102309.35
2022-08-12T10:43:56.222Z,102315.20
2022-08-12T10:46:31.341Z,102305.16
2022-08-12T10:49:05.649Z,102303.10
2022-08-12T10:52:04.611Z,102303.03
2022-08-12T10:54:37.660Z,102296.52
2022-08-12T10:57:06.525Z,102301.59
2022-08-12T11:00:35.885Z,102299.27
2022-08-12T11:04:19.068Z,102299.44
2022-08-12T11:07:03.402Z,102293.55
2022-08-12T11:08:33.652Z,102291.45
2022-08-12T11:10:51.585Z,102296.15
2022-08-12T11:13:20.412Z,102297.42
2022-08-12T11:16:21.693Z,102294.34
2022-08-12T11:18:54.975Z,102288.52
2022-08-12T11:21:56.636Z,102286.23
2022-08-12T11:24:30.753Z,102283.30
2022-08-12T11:27:07.761Z,102286.42
2022-08-12T11:30:02.551Z,102284.02
2022-08-12T11:32:27.119Z,102281.70
2022-08-12T11:34:55.475Z,102277.40
2022-08-12T11:37:27.692Z,102273.91
2022-08-12T11:42:39.721Z,102269.97
2022-08-12T11:45:16.310Z,102264.52
2022-08-12T11:47:44.956Z,102274.65
2022-08-12T11:50:19.720Z,102272.00
2022-08-12T11:52:56.826Z,102265.20
2022-08-12T11:55:27.508Z,102255.01
2022-08-12T11:58:44.108Z,102263.27
2022-08-12T12:03:44.227Z,102265.85
2022-08-12T12:06:16.218Z,102266.98
2022-08-12T12:08:50.891Z,102258.37
2022-08-12T12:11:22.917Z,102253.22
2022-08-12T12:14:08.346Z,102253.44
2022-08-12T12:16:41.989Z,102249.77
2022-08-12T12:19:19.109Z,102229.91
2022-08-12T12:21:49.478Z,102246.25
2022-08-12T12:24:21.176Z,102249.77
2022-08-12T12:26:59.808Z,102249.38
2022-08-12T12:30:19.553Z,102248.58
2022-08-12T12:32:28.940Z,102242.25
2022-08-12T12:35:14.369Z,102237.46
2022-08-12T12:38:12.234Z,102241.90
2022-08-12T12:40:46.302Z,102239.32
2022-08-12T12:43:29.082Z,102217.03
2022-08-12T12:46:08.856Z,102228.98
2022-08-12T12:48:38.234Z,102227.61
2022-08-12T12:51:48.333Z,102222.29
2022-08-12T12:54:09.966Z,102227.85
2022-08-12T12:56:42.937Z,102218.63
2022-08-12T12:59:56.435Z,102219.00
2022-08-12T13:02:07.669Z,102219.80
2022-08-12T13:04:37.885Z,102220.00
2022-08-12T13:07:06.874Z,102218.93
2022-08-12T13:09:36.353Z,102214.66
2022-08-12T13:12:12.493Z,102212.09
2022-08-12T13:14:40.722Z,102215.79
2022-08-12T13:17:14.635Z,102196.77
2022-08-12T13:19:48.378Z,102204.83
2022-08-12T13:22:23.392Z,102204.14
2022-08-12T13:24:56.408Z,102198.33
2022-08-12T13:27:35.458Z,102194.45
2022-08-12T13:30:13.237Z,102198.27
2022-08-12T13:32:56.764Z,102189.53
2022-08-12T13:35:33.592Z,102190.55
2022-08-12T13:38:15.746Z,102189.70
2022-08-12T13:40:58.619Z,102187.92
2022-08-12T13:43:40.373Z,102191.78
2022-08-12T13:46:13.901Z,102194.75
2022-08-12T13:48:45.292Z,102190.64
2022-08-12T13:51:14.925Z,102190.95
2022-08-12T13:53:55.248Z,102192.98
2022-08-12T13:56:34.738Z,102190.58
2022-08-12T13:59:07.951Z,102189.19
2022-08-12T14:01:40.405Z,102193.07
2022-08-12T14:04:11.691Z,102190.64
2022-08-12T14:06:41.167Z,102184.13
2022-08-12T14:09:17.287Z,102190.40
2022-08-12T14:11:51.283Z,102184.20
2022-08-12T14:14:31.144Z,102187.42
2022-08-12T14:17:10.423Z,102175.09
2022-08-12T14:20:01.274Z,102188.63
2022-08-12T14:22:30.260Z,102184.67
2022-08-12T14:24:58.958Z,102185.77
2022-08-12T14:28:04.441Z,102175.17
2022-08-12T14:30:24.221Z,102176.15
2022-08-12T14:33:03.282Z,102180.92
2022-08-12T14:35:41.076Z,102177.78
2022-08-12T14:38:25.431Z,102181.30
2022-08-12T14:41:00.156Z,102187.06
2022-08-12T14:43:59.056Z,102190.11
2022-08-12T14:46:23.518Z,102179.16
2022-08-12T14:48:54.613Z,102187.02
2022-08-12T14:52:42.632Z,102179.73
2022-08-12T14:57:20.026Z,102176.65
2022-08-12T15:00:10.440Z,102184.48
2022-08-12T15:02:40.170Z,102183.69
2022-08-12T15:05:08.819Z,102181.95
2022-08-12T15:07:50.919Z,102184.97
2022-08-12T15:10:31.274Z,102185.89
2022-08-12T15:13:07.141Z,102183.37
2022-08-12T15:15:43.660Z,102173.01
2022-08-12T15:18:21.668Z,102184.88
2022-08-12T15:20:52.355Z,102186.55
2022-08-12T15:23:29.032Z,102188.30
2022-08-12T15:26:06.016Z,102187.27
2022-08-12T15:28:34.875Z,102183.49
2022-08-12T15:31:21.191Z,102187.43
2022-08-12T15:33:54.456Z,102183.67
2022-08-12T15:36:55.320Z,102182.39
2022-08-12T15:39:17.089Z,102182.88
2022-08-12T15:41:50.072Z,102182.50
2022-08-12T15:44:38.294Z,102179.64
2022-08-12T15:47:07.968Z,102174.23
2022-08-12T15:49:54.441Z,102167.45
2022-08-12T15:52:29.556Z,102166.80
2022-08-12T15:55:04.974Z,102166.47
2022-08-12T15:57:34.665Z,102162.87
2022-08-12T16:00:06.608Z,102160.57
2022-08-12T16:02:50.608Z,102158.89
2022-08-12T16:06:15.692Z,102159.50
2022-08-12T16:08:18.310Z,102156.96
2022-08-12T16:10:48.438Z,102154.19
2022-08-12T16:13:32.821Z,102157.48
2022-08-12T16:16:22.463Z,102159.44
2022-08-12T16:18:59.642Z,102159.20
2022-08-12T16:21:52.813Z,102157.36
2022-08-12T16:24:20.690Z,102158.36
2022-08-12T16:26:51.068Z,102139.71
2022-08-12T16:29:49.431Z,102154.21
2022-08-12T16:32:24.375Z,102153.05
2022-08-12T16:35:00.575Z,102136.52
2022-08-12T16:37:32.846Z,102150.82
2022-08-12T16:40:20.039Z,102152.88
2022-08-12T16:42:53.829Z,102147.05
2022-08-12T16:46:04.009Z,102148.45
2022-08-12T16:48:35.504Z,102146.27
2022-08-12T16:51:12.737Z,102142.20
2022-08-12T16:53:44.755Z,102139.76
2022-08-12T16:56:15.658Z,102139.05
2022-08-12T16:58:47.344Z,102137.41
2022-08-12T17:01:16.701Z,102134.43
2022-08-12T17:04:08.179Z,102137.55
2022-08-12T17:06:44.120Z,102129.94
2022-08-12T17:09:17.852Z,102131.86
2022-08-12T17:11:49.782Z,102128.39
2022-08-12T17:14:23.530Z,102127.19
2022-08-12T17:16:55.612Z,102125.81
2022-08-12T17:20:30.530Z,102132.49
2022-08-12T17:22:16.679Z,102120.07
2022-08-12T17:24:54.601Z,102119.67
2022-08-12T17:27:40.846Z,102133.35
2022-08-12T17:30:09.986Z,102132.63
2022-08-12T17:32:44.258Z,102128.48
2022-08-12T17:35:29.561Z,102124.37
2022-08-12T17:38:05.378Z,102119.86
2022-08-12T17:40:36.901Z,102121.14
2022-08-12T17:43:52.020Z,102117.11
2022-08-12T17:46:00.099Z,102113.89
2022-08-12T17:48:38.733Z,102114.80
2022-08-12T17:51:16.197Z,102112.15
2022-08-12T17:54:06.391Z,102112.15
2022-08-12T17:56:39.614Z,102117.95
2022-08-12T17:59:12.396Z,102121.59
2022-08-12T18:01:45.237Z,102120.89
2022-08-12T18:04:22.771Z,102117.70
2022-08-12T18:07:06.302Z,102117.40
2022-08-12T18:09:37.968Z,102117.33
2022-08-12T18:12:26.861Z,102120.77
2022-08-12T18:15:02.253Z,102119.18
2022-08-12T18:17:33.252Z,102121.59
2022-08-12T18:20:15.379Z,102121.42
2022-08-12T18:22:46.476Z,102121.98
2022-08-12T18:26:13.776Z,102122.99
2022-08-12T18:28:30.855Z,102121.60
2022-08-12T18:31:03.177Z,102125.38
2022-08-12T18:33:41.540Z,102126.69
2022-08-12T18:36:13.478Z,102126.16
2022-08-12T18:38:44.786Z,102127.95
2022-08-12T18:41:33.584Z,102127.42
2022-08-12T18:44:09.992Z,102126.98
2022-08-12T18:46:48.871Z,102124.16
2022-08-12T18:49:38.903Z,102127.73
2022-08-12T18:52:11.980Z,102117.78
2022-08-12T18:54:48.983Z,102127.23
2022-08-12T18:58:07.508Z,102128.75
2022-08-12T19:00:21.050Z,102131.11
2022-08-12T19:02:53.068Z,102127.79
2022-08-12T19:05:53.813Z,102132.98
2022-08-12T19:08:14.721Z,102124.08
2022-08-12T19:10:50.207Z,102129.73
2022-08-12T19:13:39.878Z,102128.53
2022-08-12T19:16:11.623Z,102127.61
2022-08-12T19:18:44.943Z,102126.95
2022-08-12T19:21:16.394Z,102122.86
2022-08-12T19:24:05.373Z,102124.92
2022-08-12T19:26:34.948Z,102120.95
2022-08-12T19:29:05.712Z,102117.85
2022-08-12T19:31:56.223Z,102120.95
2022-08-12T19:38:03.248Z,102115.80
2022-08-12T19:40:31.452Z,102114.77
2022-08-12T19:43:19.377Z,102115.89
2022-08-12T19:45:56.663Z,102119.95
2022-08-12T19:48:32.888Z,102116.19
2022-08-12T19:51:22.614Z,102111.58
2022-08-12T19:53:58.115Z,102112.87
2022-08-12T19:56:29.451Z,102110.70
2022-08-12T19:59:20.755Z,102111.78
2022-08-12T20:02:02.835Z,102092.16
2022-08-12T20:04:35.452Z,102103.66
2022-08-12T20:07:05.647Z,102103.96
2022-08-12T20:09:38.754Z,102090.34
2022-08-12T20:12:18.008Z,102099.59
2022-08-12T20:14:51.531Z,102101.43
2022-08-12T20:17:23.707Z,102102.67
2022-08-12T20:20:19.494Z,102105.92
2022-08-12T20:22:50.228Z,102109.40
2022-08-12T20:25:19.022Z,102109.34
2022-08-12T20:28:21.740Z,102110.58
2022-08-12T20:30:59.449Z,102109.98
2022-08-12T20:33:50.159Z,102098.42
2022-08-12T20:36:40.769Z,102112.33
2022-08-12T20:39:34.289Z,102114.91
2022-08-12T20:42:00.090Z,102116.41
2022-08-12T20:44:59.655Z,102118.16
2022-08-12T20:47:42.164Z,102118.39
2022-08-12T20:50:15.800Z,102123.18
2022-08-12T20:52:49.239Z,102127.58
2022-08-12T20:55:19.471Z,102126.70
2022-08-12T20:58:04.904Z,102130.73
2022-08-12T21:00:33.699Z,102139.29
2022-08-12T21:03:23.429Z,102135.54
2022-08-12T21:07:08.206Z,102133.14
2022-08-12T21:09:40.702Z,102135.87
2022-08-12T21:12:28.482Z,102138.37
2022-08-12T21:15:17.089Z,102140.16
2022-08-12T21:18:11.609Z,102142.98
2022-08-12T21:20:53.087Z,102141.94
2022-08-12T21:23:23.520Z,102142.48
2022-08-12T21:25:56.740Z,102141.11
2022-08-12T21:28:31.878Z,102146.38
2022-08-12T21:32:34.484Z,102144.48
2022-08-12T21:34:06.990Z,102142.47
2022-08-12T21:36:48.183Z,102139.76
2022-08-12T21:39:21.709Z,102135.85
2022-08-12T21:41:52.760Z,102142.02
2022-08-12T21:45:44.512Z,102133.83
2022-08-12T21:47:20.776Z,102133.10
2022-08-12T21:50:02.420Z,102134.44
2022-08-12T21:52:34.598Z,102143.14
2022-08-12T21:55:18.703Z,102141.25
2022-08-12T21:57:54.617Z,102143.39
2022-08-12T22:00:35.273Z,102144.85
2022-08-12T22:04:03.258Z,102150.05
2022-08-12T22:06:31.259Z,102145.44
2022-08-12T22:09:16.063Z,102143.61
2022-08-12T22:12:40.722Z,102151.45
2022-08-12T22:15:21.896Z,102153.07
2022-08-12T22:17:55.431Z,102157.02
2022-08-12T22:20:29.626Z,102157.96
2022-08-12T22:23:02.529Z,102154.42
2022-08-12T22:25:31.770Z,102153.58
2022-08-12T22:28:24.568Z,102151.20
2022-08-12T22:31:11.418Z,102149.57
2022-08-12T22:33:54.025Z,102154.55
2022-08-12T22:36:29.013Z,102147.23
2022-08-12T22:38:59.088Z,102145.55
2022-08-12T22:41:46.106Z,102145.77
2022-08-12T22:44:32.790Z,102144.20
2022-08-12T22:47:53.614Z,102139.52
2022-08-12T22:50:28.941Z,102139.02
2022-08-12T22:53:16.474Z,102137.23
2022-08-12T22:56:05.845Z,102134.29
2022-08-12T22:58:40.699Z,102131.73
2022-08-12T23:01:11.314Z,102128.26
2022-08-12T23:03:49.006Z,102114.98
2022-08-12T23:06:24.412Z,102126.85
2022-08-12T23:08:53.025Z,102125.86
2022-08-12T23:11:23.746Z,102127.25
2022-08-12T23:14:01.888Z,102120.41
2022-08-12T23:16:34.130Z,102116.31
2022-08-12T23:19:09.915Z,102115.88
2022-08-12T23:22:36.997Z,102111.77
2022-08-12T23:25:06.010Z,102111.70
2022-08-12T23:27:55.969Z,102116.34
2022-08-12T23:30:30.976Z,102112.20
2022-08-12T23:33:01.629Z,102114.26
2022-08-12T23:35:53.559Z,102109.23
2022-08-12T23:38:31.487Z,102107.83
2022-08-12T23:41:03.310Z,102108.81
2022-08-12T23:43:39.628Z,102108.23
2022-08-12T23:46:19.073Z,102105.58
2022-08-12T23:48:53.069Z,102102.83
2022-08-12T23:51:27.071Z,102099.15
2022-08-12T23:54:07.373Z,102095.53
2022-08-12T23:57:26.982Z,102093.96
